Time;durP1;ratioP1;P1;durP2;ratioP2;P2;SDS_P1;SDS_P2;PMS_P1;PMS_P2;Temp;Humidity;BMP_temperature;BMP_pressure;BME280_temperature;BME280_humidity;BME280_pressure;Samples;Min_cycle;Max_cycle;Signal;HPM_P1;HPM_P2
2022/06/29 00:00:18;;;;;;;1.95;1.65;;;20.70;99.90;;;;;;5054738;28;20214;-76
2022/06/29 00:02:44;;;;;;;1.60;1.50;;;20.70;99.90;;;;;;5054147;28;20566;-75
2022/06/29 00:05:12;;;;;;;1.98;1.65;;;20.70;99.90;;;;;;5053867;28;20204;-75
2022/06/29 00:07:39;;;;;;;2.20;1.52;;;20.70;99.90;;;;;;5045053;23;20239;-72
2022/06/29 00:10:05;;;;;;;2.17;1.30;;;20.70;99.90;;;;;;5005413;28;20685;-70
2022/06/29 00:12:31;;;;;;;1.75;1.50;;;20.70;99.90;;;;;;5014283;28;20212;-70
2022/06/29 00:14:57;;;;;;;2.13;1.50;;;20.70;99.90;;;;;;5013918;28;20224;-70
2022/06/29 00:17:23;;;;;;;3.20;1.67;;;20.70;99.90;;;;;;5013691;28;20638;-70
2022/06/29 00:19:49;;;;;;;1.65;1.48;;;20.70;99.90;;;;;;5013656;28;20243;-70
2022/06/29 00:22:15;;;;;;;2.13;1.55;;;20.60;99.90;;;;;;4997660;28;20718;-71
2022/06/29 00:24:41;;;;;;;1.58;1.48;;;20.50;99.90;;;;;;4985219;28;20193;-71
2022/06/29 00:27:08;;;;;;;7.88;2.28;;;20.40;99.90;;;;;;4993922;28;20217;-70
2022/06/29 00:29:34;;;;;;;1.90;1.65;;;20.40;99.90;;;;;;4993693;28;20209;-71
2022/06/29 00:32:00;;;;;;;1.90;1.70;;;20.40;99.90;;;;;;4994228;28;20260;-71
2022/06/29 00:34:26;;;;;;;3.08;1.88;;;20.40;99.90;;;;;;4993831;28;20715;-71
2022/06/29 00:36:52;;;;;;;6.05;1.70;;;20.40;99.90;;;;;;4993934;28;20260;-70
2022/06/29 00:39:17;;;;;;;2.67;1.95;;;20.30;99.90;;;;;;4994130;28;20666;-72
2022/06/29 00:41:44;;;;;;;3.90;1.63;;;20.20;99.90;;;;;;4993665;28;20233;-70
2022/06/29 00:44:18;;;;;;;2.10;1.90;;;20.20;99.90;;;;;;4993879;28;20216;-71
2022/06/29 00:46:47;;;;;;;3.70;1.70;;;20.20;99.90;;;;;;4993680;28;20245;-70
2022/06/29 00:49:15;;;;;;;1.70;1.60;;;20.20;99.90;;;;;;4993567;28;20213;-72
2022/06/29 00:51:44;;;;;;;1.65;1.50;;;20.20;99.90;;;;;;4995914;28;20232;-71
2022/06/29 00:54:13;;;;;;;1.85;1.60;;;20.10;99.90;;;;;;4993860;28;20674;-70
2022/06/29 00:56:40;;;;;;;2.95;1.90;;;20.20;99.90;;;;;;4993513;28;20214;-72
2022/06/29 00:59:07;;;;;;;2.42;1.70;;;20.10;99.90;;;;;;4981928;28;20237;-71
2022/06/29 01:01:35;;;;;;;2.42;1.65;;;20.10;99.90;;;;;;4990990;28;20216;-71
2022/06/29 01:04:00;;;;;;;2.20;1.98;;;20.10;99.90;;;;;;4991619;28;20196;-71
2022/06/29 01:06:26;;;;;;;3.45;1.73;;;20.00;99.90;;;;;;4993507;28;20567;-71
2022/06/29 01:08:52;;;;;;;2.10;1.88;;;20.00;99.90;;;;;;4993093;28;20213;-71
2022/06/29 01:11:17;;;;;;;4.85;2.00;;;20.00;99.90;;;;;;4993499;28;20214;-71
2022/06/29 01:13:44;;;;;;;2.08;1.75;;;20.00;99.90;;;;;;4993360;28;20208;-71
2022/06/29 01:16:09;;;;;;;2.65;1.90;;;19.90;99.90;;;;;;4993197;28;20293;-71
2022/06/29 01:18:36;;;;;;;1.90;1.80;;;19.90;99.90;;;;;;4993314;28;20750;-70
2022/06/29 01:21:09;;;;;;;2.28;1.70;;;19.90;99.90;;;;;;4995192;28;20202;-72
2022/06/29 01:23:35;;;;;;;3.90;2.00;;;19.90;99.90;;;;;;5011139;28;20216;-71
2022/06/29 01:26:05;;;;;;;2.40;1.70;;;19.90;99.90;;;;;;5012673;28;20205;-72
2022/06/29 01:28:31;;;;;;;2.80;1.70;;;20.00;99.90;;;;;;5012282;28;20208;-72
2022/06/29 01:30:57;;;;;;;2.00;1.77;;;19.90;99.90;;;;;;5012823;28;20177;-71
2022/06/29 01:33:23;;;;;;;2.28;1.98;;;19.90;99.90;;;;;;4994677;28;20186;-72
2022/06/29 01:35:50;;;;;;;3.42;1.90;;;19.80;99.90;;;;;;4991374;28;20206;-72
2022/06/29 01:38:16;;;;;;;2.97;1.73;;;19.70;99.90;;;;;;4983210;28;20304;-71
2022/06/29 01:40:42;;;;;;;3.63;1.85;;;19.60;99.90;;;;;;4992678;28;20300;-71
2022/06/29 01:43:08;;;;;;;3.28;1.90;;;19.60;99.90;;;;;;4992996;28;20247;-71
2022/06/29 01:45:33;;;;;;;4.00;1.85;;;19.50;99.90;;;;;;4983587;28;20240;-71
2022/06/29 01:47:59;;;;;;;2.42;2.00;;;19.60;99.90;;;;;;4992798;28;20210;-71
2022/06/29 01:50:24;;;;;;;3.20;1.88;;;19.60;99.90;;;;;;4993982;28;20198;-71
2022/06/29 01:52:50;;;;;;;2.80;1.60;;;19.50;99.90;;;;;;4992510;28;20217;-70
2022/06/29 01:55:15;;;;;;;3.05;1.85;;;19.50;99.90;;;;;;4992618;28;20201;-71
2022/06/29 01:57:41;;;;;;;2.25;1.83;;;19.50;99.90;;;;;;4992523;28;20416;-71
2022/06/29 02:00:07;;;;;;;3.63;2.10;;;19.50;99.90;;;;;;4992362;28;20260;-71
2022/06/29 02:02:33;;;;;;;2.00;1.80;;;19.50;99.90;;;;;;4992056;28;20296;-72
2022/06/29 02:04:58;;;;;;;2.40;1.85;;;19.50;99.90;;;;;;4982875;28;20285;-70
2022/06/29 02:07:24;;;;;;;2.15;1.95;;;19.50;99.90;;;;;;4991784;28;20225;-71
2022/06/29 02:09:49;;;;;;;1.77;1.67;;;19.50;99.90;;;;;;4992113;28;20224;-72
2022/06/29 02:12:15;;;;;;;3.83;2.35;;;19.60;99.90;;;;;;4983210;28;20170;-71
2022/06/29 02:14:40;;;;;;;2.17;1.73;;;19.50;99.90;;;;;;4982572;28;20223;-71
2022/06/29 02:17:06;;;;;;;3.20;2.13;;;19.50;99.90;;;;;;4991792;28;20304;-71
2022/06/29 02:19:32;;;;;;;3.83;2.08;;;19.50;99.90;;;;;;4982266;28;20625;-71
2022/06/29 02:21:57;;;;;;;2.83;2.00;;;19.40;99.90;;;;;;4993994;28;20192;-71
2022/06/29 02:24:23;;;;;;;2.83;2.10;;;19.50;99.90;;;;;;4992271;28;20636;-71
2022/06/29 02:26:48;;;;;;;2.75;2.10;;;19.40;99.90;;;;;;4991850;28;20644;-71
2022/06/29 02:29:14;;;;;;;2.55;2.03;;;19.30;99.90;;;;;;4991603;28;20210;-71
2022/06/29 02:37:08;;;;;;;3.78;1.70;;;19.40;99.90;;;;;;4991662;28;20228;-70
2022/06/29 02:39:33;;;;;;;3.08;2.17;;;19.30;99.90;;;;;;4992174;28;20189;-72
2022/06/29 02:41:59;;;;;;;6.22;2.30;;;19.30;99.90;;;;;;4998799;28;20213;-72
2022/06/29 02:44:25;;;;;;;2.85;1.67;;;19.40;99.90;;;;;;5008547;28;20217;-70
2022/06/29 02:46:50;;;;;;;4.40;1.98;;;19.40;99.90;;;;;;4999622;28;20218;-72
2022/06/29 02:49:16;;;;;;;3.83;2.10;;;19.50;99.90;;;;;;4999275;28;20228;-70
2022/06/29 02:51:41;;;;;;;2.38;1.95;;;19.40;99.90;;;;;;5002851;28;20181;-70
2022/06/29 02:54:07;;;;;;;2.42;2.13;;;19.50;99.90;;;;;;5003474;28;20235;-70
2022/06/29 02:56:32;;;;;;;2.80;2.10;;;19.50;99.90;;;;;;5001202;28;20732;-71
2022/06/29 02:58:58;;;;;;;3.45;2.03;;;19.50;99.90;;;;;;4999126;28;20729;-70
2022/06/29 03:01:24;;;;;;;3.05;1.90;;;19.40;99.90;;;;;;4999964;28;20567;-71
2022/06/29 03:03:50;;;;;;;2.45;1.77;;;19.40;99.90;;;;;;5003030;28;20177;-70
2022/06/29 03:06:15;;;;;;;2.88;2.00;;;19.40;99.90;;;;;;5003433;28;20646;-70
2022/06/29 03:08:41;;;;;;;2.63;2.00;;;19.40;99.90;;;;;;4999753;28;20204;-70
2022/06/29 03:11:07;;;;;;;1.98;1.77;;;19.60;99.90;;;;;;4985248;28;20206;-70
2022/06/29 03:13:32;;;;;;;4.35;2.28;;;19.60;99.90;;;;;;5008743;28;20215;-71
2022/06/29 03:15:58;;;;;;;2.58;1.80;;;19.70;99.90;;;;;;5002934;28;20181;-71
2022/06/29 03:18:23;;;;;;;3.65;1.75;;;19.80;99.90;;;;;;5002378;28;20217;-70
2022/06/29 03:20:49;;;;;;;2.15;1.80;;;19.80;99.90;;;;;;4999681;28;20747;-71
2022/06/29 03:23:15;;;;;;;3.78;2.15;;;19.90;99.90;;;;;;4985824;28;20247;-71
2022/06/29 03:25:41;;;;;;;2.63;2.08;;;19.90;99.90;;;;;;5002000;28;20697;-71
2022/06/29 03:28:06;;;;;;;2.58;2.13;;;20.40;99.90;;;;;;5002605;28;20594;-70
2022/06/29 03:30:32;;;;;;;2.15;1.90;;;20.60;99.90;;;;;;5001720;28;20192;-71
2022/06/29 03:32:58;;;;;;;2.42;1.90;;;20.40;99.90;;;;;;4988395;28;20221;-72
2022/06/29 03:35:23;;;;;;;2.03;1.80;;;20.30;99.90;;;;;;5011804;28;20213;-72
2022/06/29 03:37:50;;;;;;;2.72;1.83;;;20.10;99.90;;;;;;5002334;28;20224;-72
2022/06/29 03:40:16;;;;;;;1.92;1.80;;;20.00;99.90;;;;;;5002533;28;20236;-72
2022/06/29 03:42:42;;;;;;;4.35;2.20;;;20.20;99.90;;;;;;5002818;28;20188;-72
2022/06/29 03:45:08;;;;;;;1.85;1.70;;;20.40;99.90;;;;;;5004867;28;20206;-72
2022/06/29 03:47:34;;;;;;;3.30;1.88;;;21.90;99.90;;;;;;5000663;28;20220;-72
2022/06/29 03:49:59;;;;;;;3.50;1.70;;;21.80;99.90;;;;;;5017282;28;20205;-72
2022/06/29 03:52:25;;;;;;;2.00;1.75;;;21.60;99.90;;;;;;5001621;28;20209;-72
2022/06/29 03:54:51;;;;;;;4.07;1.45;;;22.00;99.90;;;;;;4999178;28;20241;-72
2022/06/29 03:57:16;;;;;;;2.72;1.60;;;22.10;99.90;;;;;;5000625;28;20235;-72
2022/06/29 03:59:42;;;;;;;1.50;1.40;;;22.80;99.90;;;;;;5005163;28;20213;-72
2022/06/29 04:02:07;;;;;;;4.60;1.40;;;23.60;99.90;;;;;;5005925;28;20715;-72
2022/06/29 04:04:33;;;;;;;3.40;1.50;;;24.10;99.90;;;;;;4994593;28;20589;-72
2022/06/29 04:06:59;;;;;;;1.70;1.50;;;24.40;99.90;;;;;;5002377;28;20221;-72
2022/06/29 04:09:24;;;;;;;3.50;1.75;;;23.70;99.90;;;;;;4988413;28;20192;-72
2022/06/29 04:11:52;;;;;;;3.35;1.95;;;23.40;99.90;;;;;;5005868;28;20709;-72
2022/06/29 04:14:26;;;;;;;4.70;3.92;;;23.30;99.90;;;;;;4995978;28;20240;-72
2022/06/29 04:16:53;;;;;;;4.45;3.47;;;23.80;99.90;;;;;;5002287;28;20218;-72
2022/06/29 04:19:19;;;;;;;2.63;2.20;;;23.90;99.90;;;;;;5002122;28;20698;-73
2022/06/29 04:21:45;;;;;;;2.38;1.63;;;24.90;99.90;;;;;;5005454;28;20177;-72
2022/06/29 04:24:11;;;;;;;4.93;2.00;;;26.50;99.90;;;;;;5006189;28;20173;-72
2022/06/29 04:26:37;;;;;;;3.70;2.67;;;27.20;99.90;;;;;;5003153;28;20205;-72
2022/06/29 04:29:03;;;;;;;2.78;2.17;;;28.10;99.90;;;;;;5001881;28;20210;-72
2022/06/29 04:31:29;;;;;;;5.00;3.60;;;28.80;99.90;;;;;;5003080;28;20210;-72
2022/06/29 04:33:54;;;;;;;6.15;3.05;;;28.70;99.90;;;;;;4995985;28;20268;-72
2022/06/29 04:36:20;;;;;;;5.03;3.28;;;29.00;99.90;;;;;;5005899;28;20182;-72
2022/06/29 04:38:45;;;;;;;3.28;1.45;;;29.10;99.90;;;;;;4996984;28;20367;-72
2022/06/29 04:41:12;;;;;;;2.53;1.60;;;28.90;99.90;;;;;;5004689;28;20215;-72
2022/06/29 04:43:37;;;;;;;1.70;1.60;;;28.90;99.90;;;;;;5005177;28;20221;-72
2022/06/29 04:46:24;;;;;;;3.92;1.58;;;29.20;99.90;;;;;;5005206;28;20243;-73
2022/06/29 04:48:58;;;;;;;1.75;1.35;;;29.40;99.90;;;;;;5001050;28;20277;-72
2022/06/29 04:51:26;;;;;;;3.17;1.33;;;29.40;99.90;;;;;;4988030;28;20185;-73
2022/06/29 04:53:56;;;;;;;2.45;1.55;;;29.50;99.90;;;;;;5004895;28;20212;-73
2022/06/29 04:56:24;;;;;;;4.20;1.77;;;29.50;99.90;;;;;;5004771;28;20301;-72
2022/06/29 04:58:51;;;;;;;2.22;1.92;;;30.80;99.90;;;;;;5004049;28;20229;-72
2022/06/29 05:01:18;;;;;;;3.33;1.65;;;30.30;99.90;;;;;;4997420;28;20209;-73
2022/06/29 05:03:43;;;;;;;3.65;3.20;;;30.40;99.90;;;;;;4993500;28;20253;-72
2022/06/29 05:06:09;;;;;;;3.08;2.78;;;30.90;99.90;;;;;;4993843;28;20258;-72
2022/06/29 05:08:35;;;;;;;1.92;1.75;;;30.80;99.90;;;;;;4991816;28;20237;-72
2022/06/29 05:11:00;;;;;;;2.05;1.60;;;30.60;99.90;;;;;;4993510;28;20206;-72
2022/06/29 05:13:26;;;;;;;1.52;1.42;;;31.30;99.90;;;;;;4993281;28;20202;-73
2022/06/29 05:15:51;;;;;;;3.85;1.90;;;31.60;99.90;;;;;;4993320;28;20215;-73
2022/06/29 05:18:17;;;;;;;3.67;1.85;;;32.10;99.90;;;;;;4993398;28;20283;-73
2022/06/29 05:20:43;;;;;;;4.10;1.80;;;32.50;99.90;;;;;;4992965;28;20583;-73
2022/06/29 05:23:09;;;;;;;5.43;2.10;;;32.60;99.90;;;;;;4975848;28;20233;-73
2022/06/29 05:25:35;;;;;;;4.43;1.58;;;32.70;99.90;;;;;;4975506;28;20585;-73
2022/06/29 05:28:00;;;;;;;3.38;1.50;;;32.60;99.90;;;;;;4992582;28;20202;-73
2022/06/29 05:30:26;;;;;;;3.92;1.88;;;33.50;99.90;;;;;;5000556;28;20177;-73
2022/06/29 05:32:53;;;;;;;4.47;1.85;;;33.40;99.90;;;;;;4992944;28;20209;-72
2022/06/29 05:35:18;;;;;;;2.78;1.52;;;32.50;99.90;;;;;;4975483;28;20570;-73
2022/06/29 05:37:44;;;;;;;3.55;2.92;;;32.30;99.90;;;;;;4992496;28;20272;-73
2022/06/29 05:40:10;;;;;;;1.67;1.52;;;32.70;99.90;;;;;;4992901;28;20213;-73
2022/06/29 05:42:35;;;;;;;4.88;2.47;;;32.80;99.90;;;;;;4993175;28;20188;-72
2022/06/29 05:45:01;;;;;;;3.45;1.60;;;32.80;99.90;;;;;;4992589;28;20581;-73
2022/06/29 05:47:27;;;;;;;2.20;1.65;;;33.10;99.90;;;;;;4992643;28;20693;-73
2022/06/29 05:49:52;;;;;;;3.30;1.75;;;33.90;99.90;;;;;;4992299;28;20268;-72
2022/06/29 05:52:19;;;;;;;3.90;3.33;;;33.50;99.10;;;;;;5007089;28;20204;-73
2022/06/29 05:54:45;;;;;;;3.03;2.75;;;33.10;99.10;;;;;;5010755;28;20323;-73
2022/06/29 05:57:11;;;;;;;2.83;1.85;;;32.20;99.90;;;;;;5012469;28;20291;-73
2022/06/29 05:59:37;;;;;;;3.05;1.90;;;33.00;99.90;;;;;;5008969;28;20775;-73
2022/06/29 06:02:03;;;;;;;2.15;1.60;;;32.90;99.20;;;;;;4992409;28;20233;-73
2022/06/29 06:04:28;;;;;;;2.25;1.58;;;31.60;99.50;;;;;;4992265;28;20619;-73
2022/06/29 06:06:54;;;;;;;2.05;1.77;;;30.70;99.50;;;;;;4987947;28;20583;-71
2022/06/29 06:09:21;;;;;;;1.50;1.20;;;29.70;99.90;;;;;;4992521;28;20200;-71
2022/06/29 06:11:46;;;;;;;4.75;1.38;;;29.70;99.90;;;;;;5002500;28;20724;-71
2022/06/29 06:14:12;;;;;;;1.77;1.58;;;30.40;99.90;;;;;;5004833;28;20217;-71
2022/06/29 06:16:38;;;;;;;1.38;1.23;;;31.50;99.80;;;;;;5002486;28;20212;-72
2022/06/29 06:19:03;;;;;;;2.53;1.80;;;31.50;98.50;;;;;;5010135;28;20639;-70
2022/06/29 06:21:29;;;;;;;2.25;1.25;;;31.70;98.10;;;;;;5011892;28;20530;-70
2022/06/29 06:23:55;;;;;;;1.58;0.93;;;31.60;97.50;;;;;;5011637;28;20278;-70
2022/06/29 06:26:20;;;;;;;6.70;1.50;;;30.90;96.90;;;;;;5011286;28;20227;-71
2022/06/29 06:28:47;;;;;;;3.88;1.55;;;30.70;98.30;;;;;;5009784;28;20213;-72
2022/06/29 06:31:12;;;;;;;1.55;1.23;;;29.70;99.70;;;;;;5003448;28;20256;-70
2022/06/29 06:33:38;;;;;;;2.58;1.50;;;30.20;99.70;;;;;;5011738;28;20184;-71
2022/06/29 06:36:03;;;;;;;2.25;1.23;;;30.10;99.90;;;;;;4993702;28;20209;-71
2022/06/29 06:38:29;;;;;;;1.88;1.27;;;29.40;99.40;;;;;;5010854;28;20696;-70
2022/06/29 06:43:39;;;;;;;1.95;1.30;;;28.10;99.90;;;;;;5011353;28;20243;-70
2022/06/29 06:46:05;;;;;;;1.98;1.30;;;27.30;99.90;;;;;;5005133;28;20237;-72
2022/06/29 06:48:31;;;;;;;2.60;1.35;;;27.00;99.90;;;;;;4992088;28;20265;-72
2022/06/29 06:50:57;;;;;;;6.32;2.00;;;26.80;99.90;;;;;;4991736;28;20606;-72
2022/06/29 06:53:23;;;;;;;1.60;1.13;;;27.50;99.90;;;;;;4991574;28;20210;-71
2022/06/29 06:55:48;;;;;;;2.60;1.70;;;28.00;99.90;;;;;;4991615;28;20263;-70
2022/06/29 06:58:14;;;;;;;4.57;1.60;;;28.10;99.90;;;;;;4991231;28;20363;-70
2022/06/29 07:00:40;;;;;;;4.50;1.67;;;28.70;99.90;;;;;;4999013;28;20568;-70
2022/06/29 07:03:05;;;;;;;2.13;1.40;;;28.90;99.90;;;;;;4991412;28;20240;-70
2022/06/29 07:05:31;;;;;;;3.95;1.40;;;29.40;99.90;;;;;;4974314;28;20216;-70
2022/06/29 07:07:56;;;;;;;3.63;1.08;;;29.50;99.90;;;;;;4973944;28;20232;-70
2022/06/29 07:10:22;;;;;;;1.20;1.10;;;28.50;99.90;;;;;;4990983;28;20675;-71
2022/06/29 07:12:47;;;;;;;2.28;1.75;;;27.90;99.90;;;;;;4994927;28;20272;-69
2022/06/29 07:15:13;;;;;;;4.43;2.50;;;27.80;99.90;;;;;;5011142;28;20600;-71
2022/06/29 07:17:39;;;;;;;2.15;1.77;;;27.90;99.90;;;;;;5010369;28;20213;-70
2022/06/29 07:20:06;;;;;;;2.40;1.52;;;28.00;99.90;;;;;;5010618;28;20212;-70
2022/06/29 07:22:32;;;;;;;2.13;1.67;;;27.30;99.90;;;;;;5010463;28;20251;-70
2022/06/29 07:24:58;;;;;;;1.70;1.42;;;26.90;99.90;;;;;;5010635;28;20177;-70
2022/06/29 07:27:23;;;;;;;3.60;1.77;;;26.10;99.90;;;;;;5010664;28;20316;-71
2022/06/29 07:29:52;;;;;;;2.42;1.40;;;25.70;99.90;;;;;;5006040;28;20210;-70
2022/06/29 07:32:18;;;;;;;3.17;1.40;;;25.50;99.90;;;;;;4992309;28;20767;-71
2022/06/29 07:34:44;;;;;;;4.75;1.50;;;25.20;99.90;;;;;;4977190;28;20248;-71
2022/06/29 07:37:10;;;;;;;3.08;1.58;;;25.20;99.90;;;;;;4994723;28;20602;-70
2022/06/29 07:39:36;;;;;;;3.03;1.15;;;25.20;99.90;;;;;;4994949;28;20209;-70
2022/06/29 07:42:02;;;;;;;1.98;1.38;;;25.00;99.90;;;;;;4994901;28;20268;-71
2022/06/29 07:44:28;;;;;;;3.55;1.55;;;24.90;99.90;;;;;;4994451;28;20614;-71
2022/06/29 07:46:53;;;;;;;4.32;1.67;;;25.10;99.90;;;;;;4977110;28;20209;-72
2022/06/29 07:49:19;;;;;;;1.98;1.35;;;25.30;99.90;;;;;;4994455;28;20206;-71
2022/06/29 07:51:45;;;;;;;3.00;1.58;;;25.70;99.90;;;;;;4994524;28;20201;-70
2022/06/29 07:54:10;;;;;;;1.90;1.27;;;25.90;99.90;;;;;;4995032;28;20174;-70
2022/06/29 07:56:36;;;;;;;2.45;1.70;;;25.90;99.90;;;;;;4994260;28;20237;-70
2022/06/29 07:59:02;;;;;;;4.22;2.20;;;26.00;99.90;;;;;;4998674;28;20213;-71
2022/06/29 08:01:28;;;;;;;2.28;1.98;;;26.60;99.90;;;;;;4996829;28;20255;-72
2022/06/29 08:03:54;;;;;;;5.07;1.67;;;26.90;99.90;;;;;;4994454;28;20185;-71
2022/06/29 08:06:21;;;;;;;1.88;1.27;;;27.30;99.90;;;;;;4994629;28;20250;-71
2022/06/29 08:08:46;;;;;;;1.60;1.10;;;27.50;99.90;;;;;;4993866;28;20558;-70
2022/06/29 08:11:12;;;;;;;1.58;1.15;;;28.10;99.90;;;;;;4994221;28;20288;-71
2022/06/29 08:13:38;;;;;;;6.05;2.40;;;28.50;99.30;;;;;;4993932;28;20224;-71
2022/06/29 08:16:05;;;;;;;5.18;3.40;;;29.20;98.30;;;;;;4976599;28;20264;-71
2022/06/29 08:18:30;;;;;;;6.60;1.75;;;29.40;96.80;;;;;;4994249;28;20213;-71
2022/06/29 08:20:56;;;;;;;2.72;1.73;;;28.80;97.50;;;;;;4994002;28;20210;-71
2022/06/29 08:23:21;;;;;;;3.58;1.75;;;28.80;97.70;;;;;;4993796;28;20308;-71
2022/06/29 08:25:47;;;;;;;3.40;1.20;;;28.40;97.70;;;;;;4976394;28;20353;-71
2022/06/29 08:28:12;;;;;;;6.05;1.85;;;28.80;97.90;;;;;;4993377;28;20208;-71
2022/06/29 08:30:38;;;;;;;2.67;1.70;;;29.20;96.40;;;;;;4983973;28;20178;-71
2022/06/29 08:33:03;;;;;;;5.20;2.78;;;29.70;95.50;;;;;;4976342;28;20292;-71
2022/06/29 08:35:29;;;;;;;5.63;1.90;;;30.30;94.70;;;;;;4993626;28;20719;-71
2022/06/29 08:37:54;;;;;;;3.55;1.95;;;31.20;93.90;;;;;;4993445;28;20574;-71
2022/06/29 08:40:20;;;;;;;2.10;1.15;;;31.00;93.50;;;;;;4976147;28;20300;-72
2022/06/29 08:42:47;;;;;;;3.47;1.52;;;31.50;93.00;;;;;;4993249;28;20260;-71
2022/06/29 08:45:15;;;;;;;3.05;1.50;;;31.80;92.60;;;;;;4994210;28;20605;-72
2022/06/29 08:47:41;;;;;;;2.50;2.10;;;32.10;92.20;;;;;;4993270;28;20213;-71
2022/06/29 08:50:09;;;;;;;2.38;1.92;;;31.70;90.60;;;;;;4993244;28;20205;-72
2022/06/29 08:52:36;;;;;;;1.67;1.10;;;31.20;90.80;;;;;;4993226;28;20261;-71
2022/06/29 08:55:04;;;;;;;1.65;0.90;;;30.00;87.00;;;;;;4993368;28;20635;-70
2022/06/29 08:57:31;;;;;;;5.15;2.30;;;29.80;89.50;;;;;;4993443;28;20214;-71
2022/06/29 08:59:56;;;;;;;3.17;1.88;;;30.00;89.80;;;;;;5000402;28;20201;-71
2022/06/29 09:02:22;;;;;;;9.80;3.15;;;30.20;90.00;;;;;;4993055;28;20201;-71
2022/06/29 09:04:49;;;;;;;3.50;2.42;;;29.80;88.80;;;;;;4993189;28;20209;-71
2022/06/29 09:07:14;;;;;;;4.78;1.45;;;29.50;90.60;;;;;;4992879;28;20221;-71
2022/06/29 09:09:59;;;;;;;1.90;1.67;;;29.30;90.50;;;;;;4993910;28;20240;-71
2022/06/29 09:12:25;;;;;;;2.47;1.00;;;28.60;91.60;;;;;;4993313;28;20272;-70
2022/06/29 09:14:51;;;;;;;2.05;1.70;;;28.70;91.40;;;;;;4975512;28;20217;-71
2022/06/29 09:17:17;;;;;;;2.50;2.00;;;28.60;91.50;;;;;;4992721;28;20229;-71
2022/06/29 09:19:45;;;;;;;4.65;2.65;;;28.50;92.00;;;;;;4975059;28;20213;-71
2022/06/29 09:22:11;;;;;;;4.18;2.78;;;28.30;92.40;;;;;;4992903;28;20209;-71
2022/06/29 09:24:37;;;;;;;4.78;2.10;;;27.90;93.30;;;;;;4993334;28;20188;-71
2022/06/29 09:27:05;;;;;;;2.20;1.02;;;27.60;93.40;;;;;;4992672;28;20582;-71
2022/06/29 09:29:32;;;;;;;3.13;1.70;;;27.50;92.80;;;;;;4981922;28;20216;-71
2022/06/29 09:32:01;;;;;;;2.03;1.25;;;27.30;93.40;;;;;;4992375;28;20210;-71
2022/06/29 09:34:28;;;;;;;3.53;3.20;;;27.00;93.90;;;;;;4975010;28;20737;-71
2022/06/29 09:36:58;;;;;;;4.00;1.50;;;27.50;93.90;;;;;;4992121;28;20288;-70
2022/06/29 09:39:33;;;;;;;5.28;1.92;;;27.40;93.30;;;;;;4992857;28;20174;-71
2022/06/29 09:41:59;;;;;;;1.30;0.80;;;27.20;92.80;;;;;;4992715;28;20234;-71
2022/06/29 09:44:24;;;;;;;7.88;1.92;;;27.40;93.20;;;;;;4974741;28;20210;-71
2022/06/29 09:46:54;;;;;;;2.53;1.70;;;27.80;93.50;;;;;;4992583;28;20209;-71
2022/06/29 09:49:24;;;;;;;3.47;2.78;;;28.00;93.10;;;;;;4992256;28;20209;-71
2022/06/29 09:51:58;;;;;;;4.60;1.90;;;28.50;92.90;;;;;;4986932;28;20268;-72
2022/06/29 09:54:36;;;;;;;1.98;1.15;;;28.40;92.60;;;;;;4995224;28;20170;-71
2022/06/29 09:57:02;;;;;;;2.83;1.45;;;27.50;93.10;;;;;;4992339;28;20236;-71
2022/06/29 10:02:34;;;;;;;5.88;1.40;;;27.80;93.80;;;;;;4992393;28;20291;-69
2022/06/29 10:05:21;;;;;;;1.92;1.58;;;27.70;94.40;;;;;;4992272;28;20691;-69
2022/06/29 10:07:53;;;;;;;2.38;1.27;;;27.40;93.00;;;;;;5005407;28;20747;-71
2022/06/29 10:10:23;;;;;;;4.30;1.70;;;27.80;93.50;;;;;;4990074;28;20331;-70
2022/06/29 10:15:57;;;;;;;2.40;1.20;;;27.60;93.60;;;;;;5012092;28;20215;-70
2022/06/29 10:18:56;;;;;;;0.98;0.90;;;27.20;93.80;;;;;;4999995;28;20201;-69
2022/06/29 10:21:25;;;;;;;4.40;2.15;;;26.70;94.40;;;;;;5012104;28;20678;-70
2022/06/29 10:24:00;;;;;;;4.90;2.38;;;26.80;95.40;;;;;;5011617;28;20235;-70
2022/06/29 10:26:30;;;;;;;1.70;1.10;;;26.40;95.50;;;;;;4993814;28;20733;-69
2022/06/29 10:29:17;;;;;;;6.40;4.72;;;26.30;95.50;;;;;;4985688;28;20299;-70
2022/06/29 10:32:06;;;;;;;3.05;1.73;;;26.30;96.10;;;;;;4992415;28;20634;-70
2022/06/29 10:34:34;;;;;;;2.55;1.30;;;26.40;96.80;;;;;;4981372;28;20224;-69
2022/06/29 10:37:05;;;;;;;4.78;1.52;;;26.40;96.90;;;;;;4973882;28;20214;-69
2022/06/29 10:39:48;;;;;;;1.75;1.30;;;26.30;96.70;;;;;;5009061;28;20710;-70
2022/06/29 10:45:21;;;;;;;1.55;1.02;;;26.40;97.30;;;;;;4991147;28;20240;-69
2022/06/29 10:48:12;;;;;;;2.25;1.50;;;26.40;97.30;;;;;;4990982;28;20256;-69
2022/06/29 10:50:39;;;;;;;5.82;2.55;;;26.70;97.30;;;;;;4973422;28;20587;-69
2022/06/29 10:53:23;;;;;;;5.82;4.82;;;26.70;98.40;;;;;;4990872;28;20242;-67
2022/06/29 10:55:54;;;;;;;4.25;2.22;;;27.10;97.90;;;;;;4999235;28;20705;-71
2022/06/29 10:58:20;;;;;;;2.42;1.30;;;27.30;96.70;;;;;;4984917;28;20841;-73
2022/06/29 11:00:53;;;;;;;1.30;0.95;;;27.30;97.00;;;;;;5000121;28;20626;-69
2022/06/29 11:03:20;;;;;;;5.50;3.38;;;27.20;96.70;;;;;;4980656;28;20662;-72
2022/06/29 11:16:55;;;;;;;4.82;1.80;;;26.60;98.50;;;;;;4990439;28;20292;-71
2022/06/29 11:19:28;;;;;;;3.88;1.30;;;26.60;99.00;;;;;;4990054;28;20240;-72
2022/06/29 11:22:17;;;;;;;2.45;1.20;;;26.60;98.80;;;;;;4990814;28;20190;-72
2022/06/29 11:24:51;;;;;;;4.00;1.58;;;26.40;98.60;;;;;;4975818;28;20256;-75
2022/06/29 11:27:38;;;;;;;3.05;1.20;;;26.40;98.60;;;;;;5006923;28;20205;-73
2022/06/29 11:30:07;;;;;;;3.70;2.35;;;26.30;97.10;;;;;;4986349;28;20209;-71
2022/06/29 11:32:40;;;;;;;2.20;1.80;;;26.30;97.00;;;;;;4990867;28;20240;-69
2022/06/29 11:35:07;;;;;;;2.15;1.55;;;26.30;96.40;;;;;;4989713;28;20262;-68
2022/06/29 11:37:32;;;;;;;3.80;2.95;;;26.10;96.90;;;;;;4989788;28;20232;-70
2022/06/29 11:39:58;;;;;;;1.20;1.13;;;26.40;97.00;;;;;;4989056;28;20269;-69
2022/06/29 11:45:18;;;;;;;3.58;2.00;;;26.40;98.10;;;;;;4990646;28;20721;-69
2022/06/29 11:47:54;;;;;;;1.80;1.30;;;26.60;98.60;;;;;;4990183;28;20213;-69
2022/06/29 11:50:21;;;;;;;2.28;1.00;;;26.60;98.50;;;;;;4997575;28;20313;-69
2022/06/29 11:52:49;;;;;;;2.58;1.33;;;27.00;98.50;;;;;;4990391;28;20288;-69
2022/06/29 11:55:15;;;;;;;3.65;1.40;;;27.20;98.40;;;;;;4990368;28;20232;-69
2022/06/29 11:57:41;;;;;;;1.85;1.15;;;27.20;97.50;;;;;;4990570;28;20205;-69
2022/06/29 12:00:08;;;;;;;4.20;2.47;;;27.00;97.50;;;;;;4997688;28;20213;-69
2022/06/29 12:02:34;;;;;;;4.00;1.20;;;27.40;97.20;;;;;;4972661;28;20209;-70
2022/06/29 12:05:01;;;;;;;1.98;1.10;;;27.10;96.70;;;;;;4972930;28;20205;-68
2022/06/29 12:07:28;;;;;;;5.35;2.85;;;27.00;96.60;;;;;;5007737;23;20245;-73
2022/06/29 12:09:55;;;;;;;6.72;1.55;;;27.00;96.70;;;;;;5049591;28;20283;-73
2022/06/29 12:12:21;;;;;;;2.90;1.63;;;26.70;97.10;;;;;;5052112;28;20200;-74
2022/06/29 12:14:46;;;;;;;2.03;1.60;;;27.00;97.50;;;;;;5032761;28;20242;-73
2022/06/29 12:17:13;;;;;;;2.08;1.40;;;27.00;96.80;;;;;;5050352;28;20222;-72
2022/06/29 12:19:39;;;;;;;1.48;1.00;;;27.00;96.30;;;;;;5033211;28;20835;-73
2022/06/29 12:22:05;;;;;;;8.52;1.45;;;26.70;96.30;;;;;;5018678;28;20231;-72
2022/06/29 12:24:31;;;;;;;1.85;1.38;;;26.70;96.20;;;;;;5035361;28;20191;-73
2022/06/29 12:26:56;;;;;;;4.95;1.13;;;26.50;95.90;;;;;;5016764;28;20224;-74
2022/06/29 12:29:22;;;;;;;1.80;1.05;;;26.80;96.10;;;;;;5033775;28;20585;-74
2022/06/29 12:31:48;;;;;;;2.03;0.93;;;26.50;95.40;;;;;;5034648;28;20674;-73
2022/06/29 12:34:15;;;;;;;1.23;0.95;;;26.40;95.50;;;;;;5033654;28;20584;-73
2022/06/29 12:36:41;;;;;;;5.72;3.90;;;26.60;95.10;;;;;;5034472;28;20180;-73
2022/06/29 12:39:07;;;;;;;3.80;1.38;;;26.70;95.10;;;;;;5033796;28;20220;-73
2022/06/29 12:41:33;;;;;;;1.08;0.98;;;26.70;94.30;;;;;;5033257;28;20204;-73
2022/06/29 12:44:05;;;;;;;1.98;1.42;;;26.60;94.40;;;;;;5018660;28;20234;-73
2022/06/29 12:46:33;;;;;;;2.33;1.33;;;26.70;94.00;;;;;;5034424;28;20200;-73
2022/06/29 12:49:03;;;;;;;1.20;0.93;;;26.60;93.30;;;;;;5032897;28;20664;-73
2022/06/29 12:51:29;;;;;;;3.33;1.02;;;26.60;94.10;;;;;;5036157;28;20181;-73
2022/06/29 12:53:55;;;;;;;2.67;1.20;;;26.90;94.00;;;;;;5017478;28;20295;-74
2022/06/29 12:56:20;;;;;;;2.15;1.15;;;26.70;94.50;;;;;;5019387;28;20228;-73
2022/06/29 12:58:46;;;;;;;2.22;0.95;;;26.80;93.70;;;;;;5018898;28;20220;-73
2022/06/29 13:01:11;;;;;;;1.90;0.88;;;26.60;94.20;;;;;;5039002;28;20219;-73
2022/06/29 13:03:37;;;;;;;2.75;1.40;;;26.30;94.50;;;;;;5038599;28;20275;-73
2022/06/29 13:06:03;;;;;;;4.55;2.60;;;26.70;94.50;;;;;;5038869;28;21038;-73
2022/06/29 13:08:29;;;;;;;5.07;1.40;;;26.40;93.80;;;;;;5035284;28;20227;-73
2022/06/29 13:10:54;;;;;;;3.15;1.40;;;26.50;93.40;;;;;;5033134;28;20211;-73
2022/06/29 13:13:20;;;;;;;2.95;1.50;;;26.60;94.90;;;;;;5015536;28;20208;-73
2022/06/29 13:15:45;;;;;;;7.85;1.70;;;26.60;95.30;;;;;;5036368;28;20255;-73
2022/06/29 13:18:11;;;;;;;4.85;1.23;;;26.50;95.90;;;;;;5039751;28;20233;-73